sensor_id;sensor_type;location;lat;lon;timestamp;temperature;humidity
17726;DHT22;8983;53.156;17.960;2022-09-03T00:02:13;13.30;99.90
17726;DHT22;8983;53.156;17.960;2022-09-03T00:04:50;13.30;99.90
17726;DHT22;8983;53.156;17.960;2022-09-03T00:07:29;13.20;99.90
17726;DHT22;8983;53.156;17.960;2022-09-03T00:10:02;13.20;99.90
17726;DHT22;8983;53.156;17.960;2022-09-03T00:12:35;13.20;99.90
17726;DHT22;8983;53.156;17.960;2022-09-03T00:15:08;13.10;99.90
17726;DHT22;8983;53.156;17.960;2022-09-03T00:17:39;13.10;99.90
17726;DHT22;8983;53.156;17.960;2022-09-03T00:20:12;13.10;99.90
17726;DHT22;8983;53.156;17.960;2022-09-03T00:22:45;13.00;99.90
17726;DHT22;8983;53.156;17.960;2022-09-03T00:25:20;13.00;99.90
17726;DHT22;8983;53.156;17.960;2022-09-03T00:27:54;12.90;99.90
17726;DHT22;8983;53.156;17.960;2022-09-03T00:30:25;12.80;99.90
17726;DHT22;8983;53.156;17.960;2022-09-03T00:32:56;12.70;99.90
17726;DHT22;8983;53.156;17.960;2022-09-03T00:35:30;12.70;99.90
17726;DHT22;8983;53.156;17.960;2022-09-03T00:37:59;12.70;99.90
17726;DHT22;8983;53.156;17.960;2022-09-03T00:40:41;12.70;99.90
17726;DHT22;8983;53.156;17.960;2022-09-03T00:43:19;12.80;99.90
17726;DHT22;8983;53.156;17.960;2022-09-03T00:45:56;12.80;99.90
17726;DHT22;8983;53.156;17.960;2022-09-03T00:48:31;12.80;99.90
17726;DHT22;8983;53.156;17.960;2022-09-03T00:51:12;12.70;99.90
17726;DHT22;8983;53.156;17.960;2022-09-03T00:53:52;12.60;99.90
17726;DHT22;8983;53.156;17.960;2022-09-03T00:56:29;12.60;99.90
17726;DHT22;8983;53.156;17.960;2022-09-03T00:59:08;12.50;99.90
17726;DHT22;8983;53.156;17.960;2022-09-03T01:01:49;12.40;99.90
17726;DHT22;8983;53.156;17.960;2022-09-03T01:04:28;12.40;99.90
17726;DHT22;8983;53.156;17.960;2022-09-03T01:07:04;12.40;99.90
17726;DHT22;8983;53.156;17.960;2022-09-03T01:09:44;12.30;99.90
17726;DHT22;8983;53.156;17.960;2022-09-03T01:12:19;12.30;99.90
17726;DHT22;8983;53.156;17.960;2022-09-03T01:15:00;12.30;99.90
17726;DHT22;8983;53.156;17.960;2022-09-03T01:17:40;12.20;99.90
17726;DHT22;8983;53.156;17.960;2022-09-03T01:20:26;12.10;99.90
17726;DHT22;8983;53.156;17.960;2022-09-03T01:23:26;12.00;99.90
17726;DHT22;8983;53.156;17.960;2022-09-03T01:26:06;12.00;99.90
17726;DHT22;8983;53.156;17.960;2022-09-03T01:28:48;11.90;99.90
17726;DHT22;8983;53.156;17.960;2022-09-03T01:31:26;11.90;99.90
17726;DHT22;8983;53.156;17.960;2022-09-03T01:34:06;11.90;99.90
17726;DHT22;8983;53.156;17.960;2022-09-03T01:36:44;11.90;99.90
17726;DHT22;8983;53.156;17.960;2022-09-03T01:39:21;11.80;99.90
17726;DHT22;8983;53.156;17.960;2022-09-03T01:42:00;11.80;99.90
17726;DHT22;8983;53.156;17.960;2022-09-03T01:45:02;11.70;99.90
17726;DHT22;8983;53.156;17.960;2022-09-03T01:47:45;11.70;99.90
17726;DHT22;8983;53.156;17.960;2022-09-03T01:50:42;11.70;99.90
17726;DHT22;8983;53.156;17.960;2022-09-03T01:53:24;11.60;99.90
17726;DHT22;8983;53.156;17.960;2022-09-03T01:56:06;11.60;99.90
17726;DHT22;8983;53.156;17.960;2022-09-03T01:58:41;11.60;99.90
17726;DHT22;8983;53.156;17.960;2022-09-03T02:01:16;11.60;99.90
17726;DHT22;8983;53.156;17.960;2022-09-03T02:03:47;11.60;99.90
17726;DHT22;8983;53.156;17.960;2022-09-03T02:06:17;11.50;99.90
17726;DHT22;8983;53.156;17.960;2022-09-03T02:08:46;11.50;99.90
17726;DHT22;8983;53.156;17.960;2022-09-03T02:11:14;11.40;99.90
17726;DHT22;8983;53.156;17.960;2022-09-03T02:13:45;11.40;99.90
17726;DHT22;8983;53.156;17.960;2022-09-03T02:16:17;11.40;99.90
17726;DHT22;8983;53.156;17.960;2022-09-03T02:18:49;11.40;99.90
17726;DHT22;8983;53.156;17.960;2022-09-03T02:21:19;11.40;99.90
17726;DHT22;8983;53.156;17.960;2022-09-03T02:23:48;11.40;99.90
17726;DHT22;8983;53.156;17.960;2022-09-03T02:26:19;11.30;99.90
17726;DHT22;8983;53.156;17.960;2022-09-03T02:28:49;11.30;99.90
17726;DHT22;8983;53.156;17.960;2022-09-03T02:31:19;11.20;99.90
17726;DHT22;8983;53.156;17.960;2022-09-03T02:33:47;11.20;99.90
17726;DHT22;8983;53.156;17.960;2022-09-03T02:36:19;11.20;99.90
17726;DHT22;8983;53.156;17.960;2022-09-03T02:38:48;11.10;99.90
17726;DHT22;8983;53.156;17.960;2022-09-03T02:41:16;11.10;99.90
17726;DHT22;8983;53.156;17.960;2022-09-03T02:43:47;11.10;99.90
17726;DHT22;8983;53.156;17.960;2022-09-03T02:46:22;11.10;99.90
17726;DHT22;8983;53.156;17.960;2022-09-03T02:48:52;11.20;99.90
17726;DHT22;8983;53.156;17.960;2022-09-03T02:51:21;11.20;99.90
17726;DHT22;8983;53.156;17.960;2022-09-03T02:53:49;11.20;99.90
17726;DHT22;8983;53.156;17.960;2022-09-03T02:56:17;11.20;99.90
17726;DHT22;8983;53.156;17.960;2022-09-03T02:58:45;11.20;99.90
17726;DHT22;8983;53.156;17.960;2022-09-03T03:01:13;11.20;99.90
17726;DHT22;8983;53.156;17.960;2022-09-03T03:03:51;11.10;99.90
17726;DHT22;8983;53.156;17.960;2022-09-03T03:06:20;11.10;99.90
17726;DHT22;8983;53.156;17.960;2022-09-03T03:08:48;11.10;99.90
17726;DHT22;8983;53.156;17.960;2022-09-03T03:11:17;11.10;99.90
17726;DHT22;8983;53.156;17.960;2022-09-03T03:13:46;11.00;99.90
17726;DHT22;8983;53.156;17.960;2022-09-03T03:16:15;11.00;99.90
17726;DHT22;8983;53.156;17.960;2022-09-03T03:18:44;11.00;99.90
17726;DHT22;8983;53.156;17.960;2022-09-03T03:21:15;11.00;99.90
17726;DHT22;8983;53.156;17.960;2022-09-03T03:23:44;11.00;99.90
17726;DHT22;8983;53.156;17.960;2022-09-03T03:26:14;10.90;99.90
17726;DHT22;8983;53.156;17.960;2022-09-03T03:28:44;10.80;99.90
17726;DHT22;8983;53.156;17.960;2022-09-03T03:31:15;10.80;99.90
17726;DHT22;8983;53.156;17.960;2022-09-03T03:33:48;10.80;99.90
17726;DHT22;8983;53.156;17.960;2022-09-03T03:36:18;10.80;99.90
17726;DHT22;8983;53.156;17.960;2022-09-03T03:38:46;10.80;99.90
17726;DHT22;8983;53.156;17.960;2022-09-03T03:41:17;10.80;99.90
17726;DHT22;8983;53.156;17.960;2022-09-03T03:43:45;10.90;99.90
17726;DHT22;8983;53.156;17.960;2022-09-03T03:46:13;10.90;99.90
17726;DHT22;8983;53.156;17.960;2022-09-03T03:48:41;10.80;99.90
17726;DHT22;8983;53.156;17.960;2022-09-03T03:51:10;10.80;99.90
17726;DHT22;8983;53.156;17.960;2022-09-03T03:53:39;10.70;99.90
17726;DHT22;8983;53.156;17.960;2022-09-03T03:56:09;10.70;99.90
17726;DHT22;8983;53.156;17.960;2022-09-03T03:58:38;10.60;99.90
17726;DHT22;8983;53.156;17.960;2022-09-03T04:01:09;10.60;99.90
17726;DHT22;8983;53.156;17.960;2022-09-03T04:03:38;10.50;99.90
17726;DHT22;8983;53.156;17.960;2022-09-03T04:06:06;10.50;99.90
17726;DHT22;8983;53.156;17.960;2022-09-03T04:08:35;10.50;99.90
17726;DHT22;8983;53.156;17.960;2022-09-03T04:11:07;10.50;99.90
17726;DHT22;8983;53.156;17.960;2022-09-03T04:13:36;10.50;99.90
17726;DHT22;8983;53.156;17.960;2022-09-03T04:16:07;10.40;99.90
17726;DHT22;8983;53.156;17.960;2022-09-03T04:18:36;10.40;99.90
17726;DHT22;8983;53.156;17.960;2022-09-03T04:21:06;10.40;99.90
17726;DHT22;8983;53.156;17.960;2022-09-03T04:23:36;10.40;99.90
17726;DHT22;8983;53.156;17.960;2022-09-03T04:26:07;10.40;99.90
17726;DHT22;8983;53.156;17.960;2022-09-03T04:28:35;10.40;99.90
17726;DHT22;8983;53.156;17.960;2022-09-03T04:31:05;10.40;99.90
17726;DHT22;8983;53.156;17.960;2022-09-03T04:33:35;10.40;99.90
17726;DHT22;8983;53.156;17.960;2022-09-03T04:36:06;10.40;99.90
17726;DHT22;8983;53.156;17.960;2022-09-03T04:38:36;10.40;99.90
17726;DHT22;8983;53.156;17.960;2022-09-03T04:41:07;10.40;99.90
17726;DHT22;8983;53.156;17.960;2022-09-03T04:43:36;10.50;99.90
17726;DHT22;8983;53.156;17.960;2022-09-03T04:46:05;10.50;99.90
17726;DHT22;8983;53.156;17.960;2022-09-03T04:48:46;10.60;99.90
17726;DHT22;8983;53.156;17.960;2022-09-03T04:51:15;10.60;99.90
17726;DHT22;8983;53.156;17.960;2022-09-03T04:53:45;10.60;99.90
17726;DHT22;8983;53.156;17.960;2022-09-03T04:56:16;10.70;99.90
17726;DHT22;8983;53.156;17.960;2022-09-03T04:58:45;10.70;99.90
17726;DHT22;8983;53.156;17.960;2022-09-03T05:01:18;10.70;99.90
17726;DHT22;8983;53.156;17.960;2022-09-03T05:03:47;10.80;99.90
17726;DHT22;8983;53.156;17.960;2022-09-03T05:06:16;10.80;99.90
17726;DHT22;8983;53.156;17.960;2022-09-03T05:08:47;10.80;99.90
17726;DHT22;8983;53.156;17.960;2022-09-03T05:11:18;10.80;99.90
17726;DHT22;8983;53.156;17.960;2022-09-03T05:13:47;10.80;99.90
17726;DHT22;8983;53.156;17.960;2022-09-03T05:16:16;10.80;99.90
17726;DHT22;8983;53.156;17.960;2022-09-03T05:18:45;10.80;99.90
17726;DHT22;8983;53.156;17.960;2022-09-03T05:21:15;10.80;99.90
17726;DHT22;8983;53.156;17.960;2022-09-03T05:23:45;10.80;99.90
17726;DHT22;8983;53.156;17.960;2022-09-03T05:26:15;10.90;99.90
17726;DHT22;8983;53.156;17.960;2022-09-03T05:28:45;10.90;99.90
17726;DHT22;8983;53.156;17.960;2022-09-03T05:31:15;11.00;99.90
17726;DHT22;8983;53.156;17.960;2022-09-03T05:33:45;11.00;99.90
17726;DHT22;8983;53.156;17.960;2022-09-03T05:36:15;11.10;99.90
17726;DHT22;8983;53.156;17.960;2022-09-03T05:38:44;11.10;99.90
17726;DHT22;8983;53.156;17.960;2022-09-03T05:41:14;11.10;99.90
17726;DHT22;8983;53.156;17.960;2022-09-03T05:43:47;11.20;99.90
17726;DHT22;8983;53.156;17.960;2022-09-03T05:46:17;11.30;99.90
17726;DHT22;8983;53.156;17.960;2022-09-03T05:48:45;11.30;99.90
17726;DHT22;8983;53.156;17.960;2022-09-03T05:51:15;11.30;99.90
17726;DHT22;8983;53.156;17.960;2022-09-03T05:53:45;11.40;99.90
17726;DHT22;8983;53.156;17.960;2022-09-03T05:56:14;11.40;99.90
17726;DHT22;8983;53.156;17.960;2022-09-03T05:58:46;11.50;99.90
17726;DHT22;8983;53.156;17.960;2022-09-03T06:01:15;11.60;99.90
17726;DHT22;8983;53.156;17.960;2022-09-03T06:03:45;11.70;99.90
17726;DHT22;8983;53.156;17.960;2022-09-03T06:06:14;11.70;99.90
17726;DHT22;8983;53.156;17.960;2022-09-03T06:08:42;11.80;99.90
17726;DHT22;8983;53.156;17.960;2022-09-03T06:11:10;11.80;99.90
17726;DHT22;8983;53.156;17.960;2022-09-03T06:13:38;11.80;99.90
17726;DHT22;8983;53.156;17.960;2022-09-03T06:16:08;12.00;99.90
17726;DHT22;8983;53.156;17.960;2022-09-03T06:18:36;12.10;99.90
17726;DHT22;8983;53.156;17.960;2022-09-03T06:21:05;12.10;99.90
17726;DHT22;8983;53.156;17.960;2022-09-03T06:23:34;12.20;99.90
17726;DHT22;8983;53.156;17.960;2022-09-03T06:26:06;12.30;99.90
17726;DHT22;8983;53.156;17.960;2022-09-03T06:28:37;12.40;99.90
17726;DHT22;8983;53.156;17.960;2022-09-03T06:31:10;12.40;99.90
17726;DHT22;8983;53.156;17.960;2022-09-03T06:33:40;12.50;99.90
17726;DHT22;8983;53.156;17.960;2022-09-03T06:36:10;12.60;99.90
17726;DHT22;8983;53.156;17.960;2022-09-03T06:38:39;12.70;99.90
17726;DHT22;8983;53.156;17.960;2022-09-03T06:41:08;12.80;99.90
17726;DHT22;8983;53.156;17.960;2022-09-03T06:43:39;12.80;99.90
17726;DHT22;8983;53.156;17.960;2022-09-03T06:46:10;12.90;99.90
17726;DHT22;8983;53.156;17.960;2022-09-03T06:48:40;13.00;99.90
17726;DHT22;8983;53.156;17.960;2022-09-03T06:51:12;13.00;99.90
17726;DHT22;8983;53.156;17.960;2022-09-03T06:53:43;13.10;99.90
17726;DHT22;8983;53.156;17.960;2022-09-03T06:56:13;13.10;99.90
17726;DHT22;8983;53.156;17.960;2022-09-03T06:58:42;13.20;99.90
17726;DHT22;8983;53.156;17.960;2022-09-03T07:01:14;13.20;99.90
17726;DHT22;8983;53.156;17.960;2022-09-03T07:03:44;13.30;99.90
17726;DHT22;8983;53.156;17.960;2022-09-03T07:06:14;13.40;99.90
17726;DHT22;8983;53.156;17.960;2022-09-03T07:08:43;13.50;99.90
17726;DHT22;8983;53.156;17.960;2022-09-03T07:11:13;13.50;99.90
17726;DHT22;8983;53.156;17.960;2022-09-03T07:13:43;13.60;99.90
17726;DHT22;8983;53.156;17.960;2022-09-03T07:16:15;13.70;99.90
17726;DHT22;8983;53.156;17.960;2022-09-03T07:18:44;13.70;99.90
17726;DHT22;8983;53.156;17.960;2022-09-03T07:21:13;13.80;99.90
17726;DHT22;8983;53.156;17.960;2022-09-03T07:23:42;13.90;99.90
17726;DHT22;8983;53.156;17.960;2022-09-03T07:26:13;14.00;99.90
17726;DHT22;8983;53.156;17.960;2022-09-03T07:28:42;14.00;99.90
17726;DHT22;8983;53.156;17.960;2022-09-03T07:31:15;14.10;99.90
17726;DHT22;8983;53.156;17.960;2022-09-03T07:33:45;14.10;99.90
17726;DHT22;8983;53.156;17.960;2022-09-03T07:36:15;14.20;99.90
17726;DHT22;8983;53.156;17.960;2022-09-03T07:38:44;14.20;99.90
17726;DHT22;8983;53.156;17.960;2022-09-03T07:41:13;14.30;99.90
17726;DHT22;8983;53.156;17.960;2022-09-03T07:43:54;14.40;99.90
17726;DHT22;8983;53.156;17.960;2022-09-03T07:46:25;14.40;99.90
17726;DHT22;8983;53.156;17.960;2022-09-03T07:48:55;14.40;99.90
17726;DHT22;8983;53.156;17.960;2022-09-03T07:51:25;14.50;99.90
17726;DHT22;8983;53.156;17.960;2022-09-03T07:53:55;14.50;99.90
17726;DHT22;8983;53.156;17.960;2022-09-03T07:56:25;14.70;99.90
17726;DHT22;8983;53.156;17.960;2022-09-03T07:58:53;14.80;99.90
17726;DHT22;8983;53.156;17.960;2022-09-03T08:01:24;14.80;99.90
17726;DHT22;8983;53.156;17.960;2022-09-03T08:03:54;14.90;99.90
17726;DHT22;8983;53.156;17.960;2022-09-03T08:06:24;14.90;99.90
17726;DHT22;8983;53.156;17.960;2022-09-03T08:08:54;15.00;99.90
17726;DHT22;8983;53.156;17.960;2022-09-03T08:11:31;15.10;99.90
17726;DHT22;8983;53.156;17.960;2022-09-03T08:14:02;15.10;99.90
17726;DHT22;8983;53.156;17.960;2022-09-03T08:16:35;15.20;99.90
17726;DHT22;8983;53.156;17.960;2022-09-03T08:19:03;15.30;99.90
17726;DHT22;8983;53.156;17.960;2022-09-03T08:21:32;15.40;99.90
17726;DHT22;8983;53.156;17.960;2022-09-03T08:24:00;15.50;99.90
17726;DHT22;8983;53.156;17.960;2022-09-03T08:26:30;15.50;99.90
17726;DHT22;8983;53.156;17.960;2022-09-03T08:28:58;15.50;99.90
17726;DHT22;8983;53.156;17.960;2022-09-03T08:31:27;15.60;99.90
17726;DHT22;8983;53.156;17.960;2022-09-03T08:33:58;15.70;99.90
17726;DHT22;8983;53.156;17.960;2022-09-03T08:36:34;15.70;99.90
17726;DHT22;8983;53.156;17.960;2022-09-03T08:39:04;15.80;99.90
17726;DHT22;8983;53.156;17.960;2022-09-03T08:41:53;15.90;99.90
17726;DHT22;8983;53.156;17.960;2022-09-03T08:44:28;15.90;99.90
17726;DHT22;8983;53.156;17.960;2022-09-03T08:46:59;16.00;99.90
17726;DHT22;8983;53.156;17.960;2022-09-03T08:49:33;16.10;99.90
17726;DHT22;8983;53.156;17.960;2022-09-03T08:52:13;16.10;99.90
17726;DHT22;8983;53.156;17.960;2022-09-03T08:54:46;16.10;99.90
17726;DHT22;8983;53.156;17.960;2022-09-03T08:57:18;16.30;99.90
17726;DHT22;8983;53.156;17.960;2022-09-03T08:59:52;16.40;99.90
17726;DHT22;8983;53.156;17.960;2022-09-03T09:02:28;16.40;99.90
17726;DHT22;8983;53.156;17.960;2022-09-03T09:05:05;16.50;99.90
17726;DHT22;8983;53.156;17.960;2022-09-03T09:07:45;16.50;99.90
17726;DHT22;8983;53.156;17.960;2022-09-03T09:10:23;16.50;99.90
17726;DHT22;8983;53.156;17.960;2022-09-03T09:13:02;16.70;99.90
17726;DHT22;8983;53.156;17.960;2022-09-03T09:15:39;16.80;99.90
17726;DHT22;8983;53.156;17.960;2022-09-03T09:18:15;16.90;99.90
17726;DHT22;8983;53.156;17.960;2022-09-03T09:20:48;16.90;99.90
17726;DHT22;8983;53.156;17.960;2022-09-03T09:23:25;17.00;99.90
17726;DHT22;8983;53.156;17.960;2022-09-03T09:25:56;17.10;99.90
17726;DHT22;8983;53.156;17.960;2022-09-03T09:28:30;17.20;99.90
17726;DHT22;8983;53.156;17.960;2022-09-03T09:31:01;17.30;99.90
17726;DHT22;8983;53.156;17.960;2022-09-03T09:33:31;17.50;99.90
17726;DHT22;8983;53.156;17.960;2022-09-03T09:36:05;17.70;99.90
17726;DHT22;8983;53.156;17.960;2022-09-03T09:38:37;17.90;99.90
17726;DHT22;8983;53.156;17.960;2022-09-03T09:41:10;18.20;99.90
17726;DHT22;8983;53.156;17.960;2022-09-03T09:43:39;18.60;99.90
17726;DHT22;8983;53.156;17.960;2022-09-03T09:46:11;19.00;99.80
17726;DHT22;8983;53.156;17.960;2022-09-03T09:48:47;19.30;99.10
17726;DHT22;8983;53.156;17.960;2022-09-03T09:51:20;19.70;98.50
17726;DHT22;8983;53.156;17.960;2022-09-03T09:54:00;19.90;97.80
17726;DHT22;8983;53.156;17.960;2022-09-03T09:56:29;20.30;96.10
17726;DHT22;8983;53.156;17.960;2022-09-03T09:59:05;20.60;95.60
17726;DHT22;8983;53.156;17.960;2022-09-03T10:01:34;20.90;94.60
17726;DHT22;8983;53.156;17.960;2022-09-03T10:04:09;21.20;93.70
17726;DHT22;8983;53.156;17.960;2022-09-03T10:06:39;21.40;92.60
17726;DHT22;8983;53.156;17.960;2022-09-03T10:09:25;21.60;91.80
17726;DHT22;8983;53.156;17.960;2022-09-03T10:12:06;21.90;91.00
17726;DHT22;8983;53.156;17.960;2022-09-03T10:14:43;22.20;90.30
17726;DHT22;8983;53.156;17.960;2022-09-03T10:17:19;22.40;88.80
17726;DHT22;8983;53.156;17.960;2022-09-03T10:20:06;22.60;87.30
17726;DHT22;8983;53.156;17.960;2022-09-03T10:23:01;22.90;85.60
17726;DHT22;8983;53.156;17.960;2022-09-03T10:25:38;23.30;83.20
17726;DHT22;8983;53.156;17.960;2022-09-03T10:28:09;23.50;80.80
17726;DHT22;8983;53.156;17.960;2022-09-03T10:30:58;23.70;79.90
17726;DHT22;8983;53.156;17.960;2022-09-03T10:33:32;23.90;78.50
17726;DHT22;8983;53.156;17.960;2022-09-03T10:36:09;24.20;77.30
17726;DHT22;8983;53.156;17.960;2022-09-03T10:38:41;24.40;75.20
17726;DHT22;8983;53.156;17.960;2022-09-03T10:41:19;24.60;73.60
17726;DHT22;8983;53.156;17.960;2022-09-03T10:44:08;24.80;71.90
17726;DHT22;8983;53.156;17.960;2022-09-03T10:46:52;24.90;70.00
17726;DHT22;8983;53.156;17.960;2022-09-03T10:49:36;25.00;68.90
17726;DHT22;8983;53.156;17.960;2022-09-03T10:52:12;25.10;67.90
17726;DHT22;8983;53.156;17.960;2022-09-03T10:55:06;25.30;66.90
17726;DHT22;8983;53.156;17.960;2022-09-03T10:57:44;25.50;65.80
17726;DHT22;8983;53.156;17.960;2022-09-03T11:00:16;25.70;65.80
17726;DHT22;8983;53.156;17.960;2022-09-03T11:03:02;26.00;64.70
17726;DHT22;8983;53.156;17.960;2022-09-03T11:05:40;26.30;63.10
17726;DHT22;8983;53.156;17.960;2022-09-03T11:08:15;26.50;62.10
17726;DHT22;8983;53.156;17.960;2022-09-03T11:10:50;26.50;60.40
17726;DHT22;8983;53.156;17.960;2022-09-03T11:13:24;26.40;59.60
17726;DHT22;8983;53.156;17.960;2022-09-03T11:15:57;26.40;59.20
17726;DHT22;8983;53.156;17.960;2022-09-03T11:18:29;26.50;59.10
17726;DHT22;8983;53.156;17.960;2022-09-03T11:21:04;26.70;59.00
17726;DHT22;8983;53.156;17.960;2022-09-03T11:23:41;27.10;58.80
17726;DHT22;8983;53.156;17.960;2022-09-03T11:26:14;27.40;58.20
17726;DHT22;8983;53.156;17.960;2022-09-03T11:28:50;27.30;57.40
17726;DHT22;8983;53.156;17.960;2022-09-03T11:31:28;27.30;57.50
17726;DHT22;8983;53.156;17.960;2022-09-03T11:34:04;27.40;56.80
17726;DHT22;8983;53.156;17.960;2022-09-03T11:36:35;27.60;56.10
17726;DHT22;8983;53.156;17.960;2022-09-03T11:39:12;27.80;55.30
17726;DHT22;8983;53.156;17.960;2022-09-03T11:41:56;27.70;54.70
17726;DHT22;8983;53.156;17.960;2022-09-03T11:44:34;27.40;54.90
17726;DHT22;8983;53.156;17.960;2022-09-03T11:47:16;27.60;54.70
17726;DHT22;8983;53.156;17.960;2022-09-03T11:49:49;27.40;54.50
17726;DHT22;8983;53.156;17.960;2022-09-03T11:52:27;27.30;54.40
17726;DHT22;8983;53.156;17.960;2022-09-03T11:54:56;27.50;54.10
17726;DHT22;8983;53.156;17.960;2022-09-03T11:57:27;27.80;53.70
17726;DHT22;8983;53.156;17.960;2022-09-03T12:00:07;28.10;53.20
17726;DHT22;8983;53.156;17.960;2022-09-03T12:02:43;28.00;53.10
17726;DHT22;8983;53.156;17.960;2022-09-03T12:05:26;27.80;53.20
17726;DHT22;8983;53.156;17.960;2022-09-03T12:08:10;27.80;52.70
17726;DHT22;8983;53.156;17.960;2022-09-03T12:10:52;27.80;53.30
17726;DHT22;8983;53.156;17.960;2022-09-03T12:13:46;28.10;53.20
17726;DHT22;8983;53.156;17.960;2022-09-03T12:16:48;28.40;52.30
17726;DHT22;8983;53.156;17.960;2022-09-03T12:19:24;28.50;51.50
17726;DHT22;8983;53.156;17.960;2022-09-03T12:21:54;28.40;51.40
17726;DHT22;8983;53.156;17.960;2022-09-03T12:24:25;28.40;51.50
17726;DHT22;8983;53.156;17.960;2022-09-03T12:27:04;28.60;51.40
17726;DHT22;8983;53.156;17.960;2022-09-03T12:29:35;28.90;51.20
17726;DHT22;8983;53.156;17.960;2022-09-03T12:32:16;29.20;50.60
17726;DHT22;8983;53.156;17.960;2022-09-03T12:34:48;29.30;50.10
17726;DHT22;8983;53.156;17.960;2022-09-03T12:37:21;29.00;50.00
17726;DHT22;8983;53.156;17.960;2022-09-03T12:40:17;29.10;49.70
17726;DHT22;8983;53.156;17.960;2022-09-03T12:42:47;29.20;49.60
17726;DHT22;8983;53.156;17.960;2022-09-03T12:45:20;29.30;49.40
17726;DHT22;8983;53.156;17.960;2022-09-03T12:47:49;29.30;49.20
17726;DHT22;8983;53.156;17.960;2022-09-03T12:50:20;29.40;49.00
17726;DHT22;8983;53.156;17.960;2022-09-03T12:52:51;29.50;49.10
17726;DHT22;8983;53.156;17.960;2022-09-03T12:55:27;29.20;48.50
17726;DHT22;8983;53.156;17.960;2022-09-03T12:58:02;28.30;48.70
17726;DHT22;8983;53.156;17.960;2022-09-03T13:00:38;27.60;49.40
17726;DHT22;8983;53.156;17.960;2022-09-03T13:03:11;27.40;50.00
17726;DHT22;8983;53.156;17.960;2022-09-03T13:05:45;27.70;50.20
17726;DHT22;8983;53.156;17.960;2022-09-03T13:08:18;28.10;49.70
17726;DHT22;8983;53.156;17.960;2022-09-03T13:10:51;28.50;49.20
17726;DHT22;8983;53.156;17.960;2022-09-03T13:13:23;28.80;48.60
17726;DHT22;8983;53.156;17.960;2022-09-03T13:16:35;28.50;48.30
17726;DHT22;8983;53.156;17.960;2022-09-03T13:19:12;28.10;48.70
17726;DHT22;8983;53.156;17.960;2022-09-03T13:21:49;28.20;49.00
17726;DHT22;8983;53.156;17.960;2022-09-03T13:24:36;28.10;48.60
17726;DHT22;8983;53.156;17.960;2022-09-03T13:27:12;27.70;48.70
17726;DHT22;8983;53.156;17.960;2022-09-03T13:29:56;27.50;49.20
17726;DHT22;8983;53.156;17.960;2022-09-03T13:32:38;27.20;49.30
17726;DHT22;8983;53.156;17.960;2022-09-03T13:35:13;27.00;49.60
17726;DHT22;8983;53.156;17.960;2022-09-03T13:37:46;26.50;49.80
17726;DHT22;8983;53.156;17.960;2022-09-03T13:40:18;26.00;50.20
17726;DHT22;8983;53.156;17.960;2022-09-03T13:42:52;25.80;50.90
17726;DHT22;8983;53.156;17.960;2022-09-03T13:45:28;26.10;51.10
17726;DHT22;8983;53.156;17.960;2022-09-03T13:48:07;26.60;50.80
17726;DHT22;8983;53.156;17.960;2022-09-03T13:51:08;26.80;51.00
17726;DHT22;8983;53.156;17.960;2022-09-03T13:53:52;26.60;49.90
17726;DHT22;8983;53.156;17.960;2022-09-03T13:56:34;26.50;50.10
17726;DHT22;8983;53.156;17.960;2022-09-03T13:59:06;26.70;50.10
17726;DHT22;8983;53.156;17.960;2022-09-03T14:01:49;27.00;49.90
17726;DHT22;8983;53.156;17.960;2022-09-03T14:04:32;27.10;49.70
17726;DHT22;8983;53.156;17.960;2022-09-03T14:07:07;27.50;49.60
17726;DHT22;8983;53.156;17.960;2022-09-03T14:09:50;27.80;49.40
17726;DHT22;8983;53.156;17.960;2022-09-03T14:12:28;28.10;48.90
17726;DHT22;8983;53.156;17.960;2022-09-03T14:15:02;28.20;48.50
17726;DHT22;8983;53.156;17.960;2022-09-03T14:17:39;28.20;48.30
17726;DHT22;8983;53.156;17.960;2022-09-03T14:20:12;28.20;48.10
17726;DHT22;8983;53.156;17.960;2022-09-03T14:22:51;28.10;47.90
17726;DHT22;8983;53.156;17.960;2022-09-03T14:25:21;28.00;48.10
17726;DHT22;8983;53.156;17.960;2022-09-03T14:27:50;27.80;48.20
17726;DHT22;8983;53.156;17.960;2022-09-03T14:30:29;27.70;48.20
17726;DHT22;8983;53.156;17.960;2022-09-03T14:33:07;27.80;48.20
17726;DHT22;8983;53.156;17.960;2022-09-03T14:35:59;27.90;48.30
17726;DHT22;8983;53.156;17.960;2022-09-03T14:41:51;28.00;48.20
17726;DHT22;8983;53.156;17.960;2022-09-03T14:44:30;27.60;48.00
17726;DHT22;8983;53.156;17.960;2022-09-03T14:47:09;27.40;48.30
17726;DHT22;8983;53.156;17.960;2022-09-03T14:49:50;27.30;48.60
17726;DHT22;8983;53.156;17.960;2022-09-03T14:52:49;27.20;48.30
17726;DHT22;8983;53.156;17.960;2022-09-03T14:55:30;27.10;48.30
17726;DHT22;8983;53.156;17.960;2022-09-03T14:58:23;27.00;48.50
17726;DHT22;8983;53.156;17.960;2022-09-03T15:00:56;27.20;48.30
17726;DHT22;8983;53.156;17.960;2022-09-03T15:04:01;27.60;48.10
17726;DHT22;8983;53.156;17.960;2022-09-03T15:06:42;28.10;47.70
17726;DHT22;8983;53.156;17.960;2022-09-03T15:09:23;28.40;47.30
17726;DHT22;8983;53.156;17.960;2022-09-03T15:11:58;28.70;46.90
17726;DHT22;8983;53.156;17.960;2022-09-03T15:14:34;28.80;46.50
17726;DHT22;8983;53.156;17.960;2022-09-03T15:17:19;28.80;46.40
17726;DHT22;8983;53.156;17.960;2022-09-03T15:20:00;28.50;46.20
17726;DHT22;8983;53.156;17.960;2022-09-03T15:22:58;28.30;46.50
17726;DHT22;8983;53.156;17.960;2022-09-03T15:25:42;28.30;46.50
17726;DHT22;8983;53.156;17.960;2022-09-03T15:28:17;28.50;46.40
17726;DHT22;8983;53.156;17.960;2022-09-03T15:30:52;28.60;46.20
17726;DHT22;8983;53.156;17.960;2022-09-03T15:33:30;28.60;46.00
17726;DHT22;8983;53.156;17.960;2022-09-03T15:36:11;28.60;45.70
17726;DHT22;8983;53.156;17.960;2022-09-03T15:38:47;28.60;45.70
17726;DHT22;8983;53.156;17.960;2022-09-03T15:41:39;28.40;45.60
17726;DHT22;8983;53.156;17.960;2022-09-03T15:44:12;28.40;45.80
17726;DHT22;8983;53.156;17.960;2022-09-03T15:46:52;28.40;45.70
17726;DHT22;8983;53.156;17.960;2022-09-03T15:49:43;28.50;45.50
17726;DHT22;8983;53.156;17.960;2022-09-03T15:52:25;28.60;45.40
17726;DHT22;8983;53.156;17.960;2022-09-03T15:54:59;28.60;45.30
17726;DHT22;8983;53.156;17.960;2022-09-03T15:57:34;28.60;45.30
17726;DHT22;8983;53.156;17.960;2022-09-03T16:00:08;28.60;45.20
17726;DHT22;8983;53.156;17.960;2022-09-03T16:02:41;28.60;45.10
17726;DHT22;8983;53.156;17.960;2022-09-03T16:05:15;28.60;45.10
17726;DHT22;8983;53.156;17.960;2022-09-03T16:08:01;28.50;45.10
17726;DHT22;8983;53.156;17.960;2022-09-03T16:10:38;28.20;45.20
17726;DHT22;8983;53.156;17.960;2022-09-03T16:13:23;27.50;45.60
17726;DHT22;8983;53.156;17.960;2022-09-03T16:15:59;26.90;46.50
17726;DHT22;8983;53.156;17.960;2022-09-03T16:18:32;26.40;47.20
17726;DHT22;8983;53.156;17.960;2022-09-03T16:21:06;25.60;47.90